Time;durP1;ratioP1;P1;durP2;ratioP2;P2;SDS_P1;SDS_P2;PMS_P1;PMS_P2;Temp;Humidity;BMP_temperature;BMP_pressure;BME280_temperature;BME280_humidity;BME280_pressure;Samples;Min_cycle;Max_cycle;Signal;HPM_P1;HPM_P2
2023/09/13 00:01:23;;;;;;;13.10;7.13;;;;;;;21.84;59.35;96022.91;4968100;28;20439;-70
2023/09/13 00:03:48;;;;;;;11.90;7.47;;;;;;;21.87;59.16;96023.44;4967714;28;20222;-71
2023/09/13 00:06:14;;;;;;;8.50;7.60;;;;;;;21.91;59.02;96013.31;4967299;28;20236;-70
2023/09/13 00:08:39;;;;;;;11.20;7.20;;;;;;;21.96;58.63;96016.38;4966584;28;20204;-70
2023/09/13 00:11:05;;;;;;;11.07;7.67;;;;;;;22.07;58.19;96026.03;4967115;28;20578;-70
2023/09/13 00:13:33;;;;;;;8.77;7.90;;;;;;;21.92;58.36;96025.66;4967194;28;20182;-70
2023/09/13 00:15:59;;;;;;;9.57;7.47;;;;;;;21.92;58.26;96026.53;4967566;28;20282;-71
2023/09/13 00:18:24;;;;;;;9.80;7.50;;;;;;;21.89;58.66;96029.47;4967947;28;20971;-69
2023/09/13 04:18:44;;;;;;;16.60;9.63;;;;;;;20.60;64.06;96057.38;5443781;23;20517;-71
2023/09/13 04:21:09;;;;;;;9.70;8.67;;;;;;;20.50;64.54;96053.81;4931463;29;20449;-72
2023/09/13 04:23:35;;;;;;;12.80;9.33;;;;;;;20.49;64.26;96057.47;4925186;29;20285;-72
2023/09/13 04:26:00;;;;;;;9.30;8.40;;;;;;;20.46;64.64;96063.09;4925403;29;21154;-72
2023/09/13 04:28:25;;;;;;;13.73;9.07;;;;;;;20.50;64.46;96057.34;4925608;29;20237;-72
2023/09/13 04:30:51;;;;;;;23.77;10.60;;;;;;;20.63;64.13;96062.44;4926665;29;20175;-72
2023/09/13 04:33:17;;;;;;;12.93;9.43;;;;;;;20.66;64.13;96063.97;4926829;29;20551;-71
2023/09/13 04:35:43;;;;;;;14.63;10.00;;;;;;;20.67;63.81;96065.66;4926570;29;20411;-71
2023/09/13 04:38:08;;;;;;;11.00;8.73;;;;;;;20.66;63.60;96067.47;4926048;29;20274;-71
2023/09/13 04:40:33;;;;;;;14.87;10.43;;;;;;;20.67;63.70;96060.31;4928223;29;20194;-71
2023/09/13 04:43:05;;;;;;;20.20;9.33;;;;;;;20.68;63.64;96068.19;4926300;29;20211;-73
2023/09/13 04:45:30;;;;;;;14.97;8.67;;;;;;;20.68;63.67;96070.03;4926690;29;20213;-71
2023/09/13 04:47:56;;;;;;;13.80;9.50;;;;;;;20.58;64.21;96070.00;4923362;29;20490;-72
2023/09/13 04:50:21;;;;;;;16.97;9.27;;;;;;;20.46;64.66;96076.41;4924195;29;20189;-72
2023/09/13 04:52:46;;;;;;;13.17;8.90;;;;;;;20.32;65.03;96084.78;4926011;29;20703;-73
2023/09/13 04:55:12;;;;;;;23.00;9.90;;;;;;;20.38;64.71;96087.72;4921247;29;20809;-71
2023/09/13 04:57:38;;;;;;;10.63;8.63;;;;;;;20.27;65.14;96086.03;4924739;29;20270;-71
2023/09/13 05:00:08;;;;;;;10.00;9.00;;;;;;;20.39;64.55;96099.25;4924320;29;20174;-71
2023/09/13 05:02:34;;;;;;;24.03;11.60;;;;;;;20.44;64.36;96095.19;4924048;29;20442;-71
2023/09/13 05:04:59;;;;;;;18.20;9.93;;;;;;;20.46;64.27;96092.41;4928330;29;20517;-71
2023/09/13 05:07:25;;;;;;;22.90;10.87;;;;;;;20.44;64.58;96092.53;4923840;29;20266;-70
2023/09/13 05:09:50;;;;;;;11.97;9.27;;;;;;;20.46;64.42;96093.22;4928075;28;20672;-73
2023/09/13 05:12:15;;;;;;;20.00;9.43;;;;;;;20.41;64.45;96103.47;4930015;29;20198;-71
2023/09/13 05:14:42;;;;;;;14.20;9.27;;;;;;;20.40;64.59;96106.25;4921599;29;20179;-71
2023/09/13 05:17:08;;;;;;;52.10;17.20;;;;;;;20.46;64.59;96109.22;4915747;29;20171;-74
2023/09/13 05:19:33;;;;;;;18.97;9.53;;;;;;;20.48;64.36;96125.94;4923410;29;20541;-73
2023/09/13 05:21:59;;;;;;;14.10;10.23;;;;;;;20.48;64.66;96131.25;4898863;29;20446;-72
2023/09/13 05:24:24;;;;;;;12.33;9.00;;;;;;;20.48;64.12;96125.06;4921079;29;20185;-72
2023/09/13 05:26:51;;;;;;;10.77;9.10;;;;;;;20.58;64.27;96131.31;4925339;29;20182;-72
2023/09/13 05:29:16;;;;;;;25.90;12.07;;;;;;;20.60;64.55;96124.03;4923523;29;20214;-72
2023/09/13 05:31:42;;;;;;;26.30;10.63;;;;;;;20.71;63.63;96128.41;4925282;29;20449;-71
2023/09/13 05:34:07;;;;;;;27.03;10.50;;;;;;;20.71;63.70;96136.41;4925181;29;20171;-72
2023/09/13 05:36:33;;;;;;;25.43;10.67;;;;;;;20.67;63.70;96140.31;4921747;29;20231;-69
2023/09/13 05:38:58;;;;;;;23.90;9.20;;;;;;;20.80;63.46;96140.91;4929806;29;20203;-67
2023/09/13 05:41:24;;;;;;;13.87;9.93;;;;;;;21.23;61.97;96138.88;4928974;29;20179;-66
2023/09/13 05:43:49;;;;;;;17.90;10.33;;;;;;;21.66;60.56;96132.28;4924099;29;20672;-67
2023/09/13 05:46:16;;;;;;;27.37;11.40;;;;;;;22.28;58.68;96133.59;4925397;29;20207;-67
2023/09/13 05:48:41;;;;;;;43.07;13.87;;;;;;;23.07;55.96;96128.72;4918183;29;20198;-65
2023/09/13 05:51:07;;;;;;;23.63;9.80;;;;;;;23.22;55.11;96127.19;4919016;29;20453;-66
2023/09/13 05:53:32;;;;;;;18.43;10.10;;;;;;;22.96;55.68;96133.25;4922610;29;20819;-66
2023/09/13 05:55:57;;;;;;;13.40;8.60;;;;;;;22.58;57.07;96139.66;4926244;29;20183;-67
2023/09/13 05:58:23;;;;;;;15.40;9.00;;;;;;;22.47;57.23;96146.03;4921564;29;20590;-66
2023/09/13 06:00:50;;;;;;;14.10;8.60;;;;;;;22.26;58.07;96145.44;4923753;29;20197;-66
2023/09/13 06:03:17;;;;;;;17.57;9.73;;;;;;;22.10;58.75;96146.84;4922857;29;20182;-65
2023/09/13 06:05:44;;;;;;;9.70;8.23;;;;;;;21.91;59.38;96150.38;4924538;29;20467;-67
2023/09/13 06:08:09;;;;;;;10.80;9.40;;;;;;;21.74;59.78;96148.47;4924608;29;20446;-67
2023/09/13 06:10:35;;;;;;;14.40;9.50;;;;;;;21.72;59.82;96153.09;4927731;29;20515;-66
2023/09/13 06:13:00;;;;;;;10.70;9.70;;;;;;;21.85;59.36;96147.44;4927233;29;20179;-67
2023/09/13 06:15:26;;;;;;;9.70;8.73;;;;;;;21.81;59.59;96157.59;4910499;29;20331;-67
2023/09/13 06:17:55;;;;;;;13.00;8.83;;;;;;;21.73;59.65;96150.28;4926597;29;20694;-66
2023/09/13 06:20:20;;;;;;;19.73;9.20;;;;;;;21.70;59.97;96163.06;4883352;29;1296585;-67
2023/09/13 06:22:46;;;;;;;14.33;8.60;;;;;;;21.71;59.99;96172.78;4927558;29;20418;-67
2023/09/13 06:25:11;;;;;;;14.10;9.80;;;;;;;21.44;60.86;96168.16;4929100;29;20206;-67
2023/09/13 06:27:37;;;;;;;23.53;9.83;;;;;;;21.26;61.78;96168.81;4931493;29;20222;-66
2023/09/13 06:30:02;;;;;;;22.63;10.57;;;;;;;21.41;61.64;96165.75;4931510;29;20171;-68
2023/09/13 06:32:28;;;;;;;32.83;10.23;;;;;;;21.19;61.92;96167.69;4931714;29;20182;-68
2023/09/13 06:34:58;;;;;;;10.50;8.83;;;;;;;21.20;62.29;96169.34;4931616;29;20167;-67
2023/09/13 06:37:25;;;;;;;16.23;9.13;;;;;;;21.77;60.68;96172.19;4930125;29;20201;-67
2023/09/13 06:39:51;;;;;;;13.10;9.77;;;;;;;22.41;58.85;96176.88;4930871;29;20924;-66
2023/09/13 06:42:16;;;;;;;15.47;10.00;;;;;;;22.70;57.75;96175.94;4930764;29;20501;-72
2023/09/13 06:44:42;;;;;;;16.70;8.70;;;;;;;22.73;57.63;96174.78;4936792;29;20218;-74
2023/09/13 06:47:07;;;;;;;11.73;8.63;;;;;;;23.37;55.82;96173.88;4934435;29;20174;-76
2023/09/13 06:49:32;;;;;;;17.63;9.50;;;;;;;23.98;54.17;96171.44;4932157;29;20198;-75
2023/09/13 06:51:58;;;;;;;17.37;9.80;;;;;;;23.72;54.86;96172.19;4931657;29;20171;-75
2023/09/13 06:54:23;;;;;;;34.20;10.70;;;;;;;23.35;56.11;96170.50;4931935;29;20182;-75
2023/09/13 06:56:48;;;;;;;19.93;9.40;;;;;;;23.43;55.83;96175.94;4931780;29;20175;-74
2023/09/13 06:59:14;;;;;;;16.33;9.50;;;;;;;23.85;54.79;96172.66;4930586;29;20194;-74
2023/09/13 07:01:40;;;;;;;32.30;10.10;;;;;;;24.33;53.71;96170.50;4931583;29;20191;-74
2023/09/13 07:04:05;;;;;;;12.47;8.63;;;;;;;23.99;53.74;96167.72;4931962;29;20226;-75
2023/09/13 07:06:31;;;;;;;31.33;10.90;;;;;;;23.25;56.77;96178.59;4930352;29;20317;-73
2023/09/13 07:08:56;;;;;;;9.40;8.40;;;;;;;23.18;57.39;96182.88;4930431;29;20268;-74
2023/09/13 07:11:22;;;;;;;9.90;8.10;;;;;;;22.67;58.05;96188.75;4931019;29;20225;-75
2023/09/13 07:13:48;;;;;;;13.20;8.33;;;;;;;22.94;58.06;96183.41;4931604;29;20175;-74
2023/09/13 07:16:13;;;;;;;20.43;9.00;;;;;;;22.85;58.51;96184.31;4931028;29;20954;-75
2023/09/13 07:18:39;;;;;;;10.97;8.93;;;;;;;22.57;59.42;96184.28;4930229;29;20642;-74
2023/09/13 07:21:04;;;;;;;17.87;9.50;;;;;;;22.67;59.98;96188.75;4929385;29;20211;-75
2023/09/13 07:23:30;;;;;;;14.40;9.60;;;;;;;22.42;60.68;96185.75;4931382;29;20191;-73
2023/09/13 07:25:55;;;;;;;19.43;9.17;;;;;;;22.66;60.73;96179.88;4930951;29;20341;-73
2023/09/13 07:28:20;;;;;;;18.43;8.33;;;;;;;22.80;60.00;96182.06;4931202;29;20317;-73
2023/09/13 07:30:46;;;;;;;13.00;8.30;;;;;;;22.90;60.64;96179.34;4931501;29;20182;-75
2023/09/13 07:33:11;;;;;;;10.00;8.63;;;;;;;22.92;60.68;96187.22;4931383;29;20190;-74
2023/09/13 07:35:37;;;;;;;9.80;8.80;;;;;;;22.89;60.49;96184.84;4930857;29;20209;-76
2023/09/13 07:38:02;;;;;;;11.20;8.73;;;;;;;22.86;60.73;96194.00;4930156;29;20218;-74
2023/09/13 07:40:28;;;;;;;13.70;9.20;;;;;;;22.82;61.03;96195.31;4930427;29;20182;-74
2023/09/13 07:42:53;;;;;;;18.13;10.00;;;;;;;22.74;61.87;96200.53;4930751;29;20271;-72
2023/09/13 07:45:19;;;;;;;13.20;9.23;;;;;;;22.63;62.85;96201.59;4930885;29;20282;-75
2023/09/13 07:47:44;;;;;;;11.07;9.97;;;;;;;22.31;64.44;96201.97;4931274;29;20270;-75
2023/09/13 07:50:40;;;;;;;17.13;9.67;;;;;;;22.26;65.12;96201.56;4931255;29;20174;-76
2023/09/13 07:53:10;;;;;;;16.70;9.70;;;;;;;22.34;64.61;96207.84;4930215;29;20250;-75
2023/09/13 07:55:36;;;;;;;11.73;10.40;;;;;;;22.36;64.62;96215.72;4930514;29;20905;-75
2023/09/13 07:58:03;;;;;;;14.43;10.70;;;;;;;22.33;64.58;96205.34;4929868;29;20510;-73
2023/09/13 08:00:28;;;;;;;13.03;11.00;;;;;;;22.22;64.95;96202.81;4931929;29;20204;-74
2023/09/13 08:02:53;;;;;;;10.87;9.80;;;;;;;22.27;65.42;96212.09;4930099;29;20419;-74
2023/09/13 08:05:19;;;;;;;12.63;11.13;;;;;;;22.45;64.07;96216.72;4930530;29;20297;-75
2023/09/13 08:07:45;;;;;;;10.40;9.20;;;;;;;22.53;62.64;96227.50;4929101;29;20717;-74
2023/09/13 08:10:11;;;;;;;20.17;10.23;;;;;;;22.64;63.17;96231.84;4930324;29;20669;-75
2023/09/13 08:12:36;;;;;;;10.47;9.23;;;;;;;22.66;63.37;96235.22;4930330;29;20540;-73
2023/09/13 08:15:03;;;;;;;10.13;9.10;;;;;;;22.67;63.39;96234.22;4930224;29;20179;-74
2023/09/13 08:17:29;;;;;;;16.57;10.20;;;;;;;22.60;63.39;96245.50;4929399;29;20655;-75
2023/09/13 08:19:54;;;;;;;13.33;9.27;;;;;;;22.69;63.34;96245.63;4929975;29;20442;-74
2023/09/13 08:22:19;;;;;;;16.40;9.80;;;;;;;22.45;64.16;96246.94;4929719;29;20368;-75
2023/09/13 08:24:45;;;;;;;13.00;10.23;;;;;;;22.30;65.54;96251.06;4930072;29;20642;-75
2023/09/13 08:27:10;;;;;;;11.60;10.40;;;;;;;22.07;66.50;96250.50;4929878;29;20185;-75
2023/09/13 08:29:35;;;;;;;15.87;10.97;;;;;;;21.85;66.95;96252.50;4929112;29;20207;-76
2023/09/13 08:32:01;;;;;;;17.40;10.63;;;;;;;21.76;67.82;96250.66;4929172;29;20278;-74
2023/09/13 08:34:26;;;;;;;12.63;10.57;;;;;;;21.85;67.30;96255.16;4930253;29;20183;-75
2023/09/13 08:36:56;;;;;;;15.23;10.93;;;;;;;21.72;67.84;96262.59;4933291;29;20209;-74
2023/09/13 08:39:22;;;;;;;13.97;10.23;;;;;;;21.82;67.45;96265.28;4914713;29;20201;-75
2023/09/13 08:41:52;;;;;;;13.80;9.87;;;;;;;21.95;66.38;96271.19;4931540;29;20419;-74
2023/09/13 08:44:22;;;;;;;13.80;9.50;;;;;;;22.06;66.21;96276.38;4929697;29;20526;-74
2023/09/13 08:46:55;;;;;;;10.93;9.70;;;;;;;21.94;66.45;96277.50;4930085;29;20474;-75
2023/09/13 08:49:22;;;;;;;12.13;10.10;;;;;;;21.87;66.83;96271.03;4929215;29;20438;-75
2023/09/13 08:51:48;;;;;;;12.57;9.83;;;;;;;21.95;66.63;96277.38;4929241;29;20514;-75
2023/09/13 08:54:15;;;;;;;17.27;9.47;;;;;;;21.79;67.29;96279.75;4929967;29;20430;-75
2023/09/13 08:56:45;;;;;;;10.77;9.63;;;;;;;21.74;67.08;96276.66;4929233;29;20411;-75
2023/09/13 08:59:12;;;;;;;14.47;10.00;;;;;;;21.61;67.75;96279.59;4929665;29;20439;-75
2023/09/13 09:01:38;;;;;;;12.70;9.57;;;;;;;21.76;67.58;96278.22;4930436;29;20430;-76
2023/09/13 09:04:03;;;;;;;12.53;9.60;;;;;;;21.38;67.79;96275.44;4930521;29;20806;-75
2023/09/13 09:06:32;;;;;;;16.33;9.90;;;;;;;21.38;68.09;96278.09;4929497;29;20661;-74
2023/09/13 09:09:00;;;;;;;14.40;10.03;;;;;;;21.39;68.46;96272.63;4910632;29;20207;-75
2023/09/13 09:11:31;;;;;;;12.80;8.80;;;;;;;21.57;68.24;96272.84;4910820;29;20807;-74
2023/09/13 09:13:58;;;;;;;11.23;9.53;;;;;;;21.72;67.08;96268.78;4911108;29;20430;-74
2023/09/13 09:16:26;;;;;;;17.97;8.83;;;;;;;21.79;67.05;96285.09;4910705;29;20492;-75
2023/09/13 09:18:54;;;;;;;12.10;9.80;;;;;;;21.88;67.27;96278.91;4909833;29;20439;-74
2023/09/13 09:21:19;;;;;;;11.07;8.73;;;;;;;21.99;66.79;96285.94;4909692;29;20721;-74
2023/09/13 09:23:45;;;;;;;12.90;9.87;;;;;;;22.07;66.55;96290.59;4910788;29;21801;-75
2023/09/13 09:26:11;;;;;;;16.97;9.60;;;;;;;22.14;66.62;96291.72;4910451;29;20746;-75
2023/09/13 09:28:36;;;;;;;30.67;12.67;;;;;;;22.13;66.49;96296.19;4915696;29;20270;-74
2023/09/13 09:31:02;;;;;;;12.30;10.50;;;;;;;21.63;68.14;96288.31;4929175;29;20175;-75
2023/09/13 09:33:30;;;;;;;13.73;10.77;;;;;;;21.99;67.11;96288.59;4929615;29;20186;-75
2023/09/13 09:35:59;;;;;;;15.10;10.70;;;;;;;22.08;66.32;96290.44;4930550;29;20371;-74
2023/09/13 09:38:28;;;;;;;26.37;12.20;;;;;;;22.05;66.04;96298.75;4928278;29;20831;-74
2023/09/13 09:41:02;;;;;;;21.30;10.30;;;;;;;22.10;66.04;96296.50;4929084;29;20451;-74
2023/09/13 09:43:29;;;;;;;23.83;10.30;;;;;;;22.06;66.34;96296.91;4931467;29;20414;-73
2023/09/13 09:45:54;;;;;;;12.50;8.37;;;;;;;22.07;66.77;96295.94;4932998;29;20462;-74
2023/09/13 09:48:20;;;;;;;18.97;9.30;;;;;;;22.07;66.97;96295.94;4952080;28;20540;-73
2023/09/13 09:50:48;;;;;;;13.10;9.40;;;;;;;22.06;67.17;96295.06;4946007;29;20203;-74
2023/09/13 09:53:13;;;;;;;13.70;9.00;;;;;;;21.96;67.78;96291.56;4945391;29;20419;-73
2023/09/13 09:55:41;;;;;;;11.60;9.60;;;;;;;21.71;68.33;96301.81;4938730;29;21135;-74
2023/09/13 09:58:07;;;;;;;13.63;10.10;;;;;;;21.68;68.06;96298.56;4934997;29;20202;-74
2023/09/13 10:00:47;;;;;;;19.27;9.50;;;;;;;21.67;68.86;96294.22;4927742;29;20461;-74
2023/09/13 10:03:17;;;;;;;12.93;9.53;;;;;;;21.64;69.00;96305.16;4931353;29;20517;-73
2023/09/13 10:06:06;;;;;;;11.30;9.30;;;;;;;21.54;69.03;96298.00;4933771;29;20458;-75
2023/09/13 10:08:43;;;;;;;12.80;9.80;;;;;;;21.47;69.36;96301.34;4932174;29;20462;-74
2023/09/13 10:11:11;;;;;;;12.17;10.17;;;;;;;21.49;69.35;96304.72;4933335;29;20926;-76
2023/09/13 10:13:38;;;;;;;11.33;9.90;;;;;;;21.38;69.92;96308.34;4936951;29;20954;-75
2023/09/13 10:16:06;;;;;;;16.07;10.47;;;;;;;21.48;69.35;96311.91;4925102;28;20512;-76
2023/09/13 10:18:36;;;;;;;19.03;11.40;;;;;;;21.45;68.82;96308.63;4933259;29;20532;-75
2023/09/13 10:21:04;;;;;;;10.50;9.50;;;;;;;21.45;69.05;96312.19;4932736;29;20457;-75
2023/09/13 10:23:38;;;;;;;19.80;10.50;;;;;;;21.59;68.81;96312.75;4935698;29;20434;-76
2023/09/13 10:26:07;;;;;;;11.80;10.60;;;;;;;21.68;68.43;96311.94;4932380;29;20466;-76
2023/09/13 10:28:35;;;;;;;10.13;8.93;;;;;;;21.74;68.22;96306.88;4931286;29;20457;-75
2023/09/13 10:31:02;;;;;;;13.80;9.60;;;;;;;21.56;69.09;96311.19;4932147;29;20900;-75
2023/09/13 10:33:31;;;;;;;15.73;10.80;;;;;;;21.73;68.79;96305.22;4931735;29;21122;-75
2023/09/13 10:36:00;;;;;;;14.90;10.63;;;;;;;21.76;67.77;96310.25;4935670;28;20789;-75
2023/09/13 10:38:26;;;;;;;13.33;9.60;;;;;;;21.82;67.79;96313.34;4932672;29;20438;-76
2023/09/13 10:40:59;;;;;;;24.30;9.80;;;;;;;21.98;67.81;96306.47;4932274;29;20418;-76
2023/09/13 10:43:27;;;;;;;12.30;9.77;;;;;;;21.84;68.15;96303.38;4932455;29;20245;-76
2023/09/13 10:45:53;;;;;;;15.13;10.80;;;;;;;21.96;67.99;96296.91;4932603;29;20470;-75
2023/09/13 10:48:20;;;;;;;26.03;11.43;;;;;;;22.19;67.32;96305.50;4934722;29;20458;-75
2023/09/13 10:50:46;;;;;;;24.63;10.37;;;;;;;22.29;66.93;96295.66;4932259;29;20175;-75
2023/09/13 10:53:14;;;;;;;22.07;10.50;;;;;;;22.27;66.75;96294.97;4935075;29;20445;-73
2023/09/13 10:55:40;;;;;;;17.37;10.37;;;;;;;22.40;65.52;96289.34;4929295;29;20198;-73
2023/09/13 10:58:09;;;;;;;11.87;9.93;;;;;;;22.50;65.17;96282.13;4929648;29;20625;-72
2023/09/13 11:00:36;;;;;;;17.57;10.30;;;;;;;22.67;64.51;96279.69;4934646;29;20434;-72
2023/09/13 11:03:04;;;;;;;13.97;10.27;;;;;;;22.67;64.60;96280.53;4931202;29;20414;-71
2023/09/13 11:05:31;;;;;;;15.93;11.00;;;;;;;22.86;64.14;96276.94;4930941;29;20462;-73
2023/09/13 11:07:57;;;;;;;12.70;9.00;;;;;;;22.94;63.16;96276.25;4929742;28;20612;-72
2023/09/13 11:10:22;;;;;;;24.33;10.50;;;;;;;22.44;63.37;96279.19;4937002;28;20521;-72
2023/09/13 11:12:51;;;;;;;10.43;9.33;;;;;;;22.40;64.01;96276.78;4934555;29;20194;-72
2023/09/13 11:15:22;;;;;;;11.50;8.90;;;;;;;22.35;63.96;96286.25;4940180;28;20260;-73
2023/09/13 11:17:52;;;;;;;12.63;8.80;;;;;;;22.40;63.56;96282.16;4930474;29;20819;-71
2023/09/13 11:20:36;;;;;;;14.80;8.83;;;;;;;22.04;63.93;96281.03;4931600;28;20435;-72
2023/09/13 11:23:05;;;;;;;9.90;8.43;;;;;;;22.38;62.77;96272.59;4932480;29;20987;-73
2023/09/13 11:25:38;;;;;;;11.00;9.20;;;;;;;22.33;63.31;96274.84;4933070;29;20472;-72
2023/09/13 11:28:06;;;;;;;12.20;8.47;;;;;;;22.70;62.37;96274.03;4928516;29;20545;-72
2023/09/13 11:30:51;;;;;;;10.00;8.53;;;;;;;22.78;61.27;96271.50;4933241;28;20474;-72
2023/09/13 11:33:16;;;;;;;12.00;9.03;;;;;;;22.81;61.43;96274.72;4928115;29;20500;-72
2023/09/13 11:35:46;;;;;;;11.77;8.80;;;;;;;22.87;61.36;96270.63;4930221;29;20525;-72
2023/09/13 11:38:12;;;;;;;11.67;8.90;;;;;;;22.94;60.93;96274.41;4928659;29;20203;-73
2023/09/13 11:40:45;;;;;;;10.27;8.80;;;;;;;22.88;60.87;96277.66;4931263;29;20402;-72
2023/09/13 11:43:11;;;;;;;10.27;7.90;;;;;;;22.77;61.37;96278.69;4924418;28;20439;-73
2023/09/13 11:45:39;;;;;;;12.50;9.20;;;;;;;22.67;61.72;96283.19;4933757;29;20468;-74
2023/09/13 11:48:07;;;;;;;15.50;9.97;;;;;;;22.72;62.15;96288.97;4935383;29;20975;-73
2023/09/13 11:50:43;;;;;;;17.63;9.63;;;;;;;22.65;63.06;96290.53;4943284;28;20439;-71
2023/09/13 11:53:09;;;;;;;26.53;11.00;;;;;;;22.62;64.22;96290.81;4935398;28;20514;-73
2023/09/13 11:55:39;;;;;;;12.00;10.10;;;;;;;22.69;63.99;96291.09;4937064;29;20865;-73
2023/09/13 11:58:04;;;;;;;16.23;9.97;;;;;;;22.60;64.96;96282.09;4932502;29;20458;-74
2023/09/13 12:00:29;;;;;;;16.20;10.17;;;;;;;22.23;64.87;96284.69;4943040;29;21225;-71
2023/09/13 12:02:56;;;;;;;10.90;9.00;;;;;;;22.19;64.98;96282.28;4936683;29;20278;-73
2023/09/13 12:05:24;;;;;;;14.30;9.47;;;;;;;22.19;64.42;96287.63;4936994;29;20207;-73
2023/09/13 12:07:49;;;;;;;10.63;9.53;;;;;;;22.19;64.36;96282.28;4937817;29;20518;-72
2023/09/13 12:10:15;;;;;;;9.47;8.57;;;;;;;22.10;64.63;96280.44;4931722;29;20480;-70
2023/09/13 12:12:42;;;;;;;8.70;7.80;;;;;;;22.05;64.81;96282.72;4929387;29;20190;-72
2023/09/13 12:15:14;;;;;;;24.87;8.47;;;;;;;22.11;65.55;96286.63;4933102;29;20230;-73
2023/09/13 12:17:40;;;;;;;10.73;9.60;;;;;;;22.30;65.38;96286.69;4929800;29;20414;-72
2023/09/13 12:20:06;;;;;;;8.80;6.60;;;;;;;22.30;63.53;96286.69;4936690;28;20440;-71
2023/09/13 12:22:38;;;;;;;8.63;6.47;;;;;;;22.24;64.01;96281.06;4930573;29;20362;-72
2023/09/13 12:25:12;;;;;;;15.30;7.23;;;;;;;22.24;64.10;96283.72;4930408;29;20219;-72
2023/09/13 12:27:38;;;;;;;15.03;7.23;;;;;;;22.14;64.91;96286.38;4929325;29;20586;-72
2023/09/13 12:30:07;;;;;;;10.03;6.73;;;;;;;22.21;64.12;96282.19;4930759;29;20551;-71
2023/09/13 12:32:33;;;;;;;8.47;6.23;;;;;;;22.14;63.78;96287.22;4929989;29;20191;-73
2023/09/13 12:35:00;;;;;;;8.53;5.90;;;;;;;22.09;63.97;96277.94;4937566;28;20439;-71
2023/09/13 12:37:26;;;;;;;24.63;8.40;;;;;;;22.17;63.55;96278.91;4930998;29;20186;-71
2023/09/13 12:39:51;;;;;;;14.30;6.30;;;;;;;22.26;63.49;96284.44;4928347;29;20477;-72
2023/09/13 12:42:18;;;;;;;11.27;5.80;;;;;;;22.42;62.92;96287.38;4929691;29;20858;-73
2023/09/13 12:44:46;;;;;;;6.70;6.00;;;;;;;22.42;62.31;96290.03;4929905;29;20175;-71
2023/09/13 12:47:15;;;;;;;17.10;7.10;;;;;;;22.53;62.45;96289.00;4929575;29;20438;-72
2023/09/13 12:49:40;;;;;;;11.70;5.90;;;;;;;22.67;61.45;96290.38;4928273;29;20545;-71
2023/09/13 12:52:06;;;;;;;8.13;5.63;;;;;;;22.60;60.77;96290.13;4928936;29;20603;-71
2023/09/13 12:54:39;;;;;;;6.97;5.47;;;;;;;22.68;61.42;96289.38;4926440;29;20530;-73
2023/09/13 12:57:05;;;;;;;16.33;6.10;;;;;;;22.77;60.73;96288.53;4928591;29;20267;-70
2023/09/13 12:59:59;;;;;;;5.63;4.83;;;;;;;22.69;60.32;96285.75;4928635;29;20592;-70
2023/09/13 13:02:26;;;;;;;11.27;6.60;;;;;;;22.45;60.42;96296.91;4916052;29;20758;-71
2023/09/13 13:04:53;;;;;;;9.73;5.87;;;;;;;22.53;60.25;96287.19;4927623;29;20912;-72
2023/09/13 13:07:21;;;;;;;12.27;7.07;;;;;;;22.34;64.05;96288.06;4927926;29;20501;-71
2023/09/13 13:10:01;;;;;;;18.17;8.73;;;;;;;22.41;64.66;96286.50;4927536;29;20529;-70
2023/09/13 13:12:27;;;;;;;27.67;9.00;;;;;;;22.58;64.10;96278.72;4911114;29;20454;-71
2023/09/13 13:14:52;;;;;;;13.23;7.70;;;;;;;22.55;63.71;96282.53;4928465;29;20433;-71
2023/09/13 13:17:18;;;;;;;12.30;8.97;;;;;;;22.42;64.70;96284.69;4927958;29;20796;-72
2023/09/13 13:19:44;;;;;;;9.07;6.37;;;;;;;22.43;64.67;96285.53;4932950;28;20225;-72
2023/09/13 13:22:17;;;;;;;9.30;7.00;;;;;;;22.43;64.10;96289.03;4932523;29;20422;-72
2023/09/13 13:24:42;;;;;;;10.50;7.07;;;;;;;22.46;63.97;96286.06;4933149;29;20422;-71
2023/09/13 13:27:08;;;;;;;27.37;8.20;;;;;;;22.52;63.29;96288.19;4932684;29;20489;-71
2023/09/13 13:29:38;;;;;;;25.70;7.87;;;;;;;22.53;63.49;96278.31;4931465;29;20222;-67
2023/09/13 13:32:04;;;;;;;10.57;6.00;;;;;;;22.33;63.91;96282.88;4931501;28;20179;-68
2023/09/13 13:34:30;;;;;;;8.60;6.30;;;;;;;22.17;64.02;96281.56;4931800;29;20411;-68
2023/09/13 13:36:55;;;;;;;8.13;5.90;;;;;;;22.04;64.39;96278.38;4931112;29;20908;-69
2023/09/13 13:39:21;;;;;;;10.17;6.70;;;;;;;22.18;64.24;96279.75;4931519;29;20289;-68
2023/09/13 13:41:46;;;;;;;13.03;6.60;;;;;;;22.19;63.36;96284.94;4932512;29;20262;-68
2023/09/13 13:44:15;;;;;;;8.97;6.23;;;;;;;22.25;63.34;96282.72;4932893;29;20190;-68
2023/09/13 13:46:40;;;;;;;21.23;7.97;;;;;;;22.26;63.58;96287.94;4932094;29;20207;-70
2023/09/13 13:49:05;;;;;;;8.97;6.60;;;;;;;22.09;63.59;96280.63;4931497;29;20470;-70
2023/09/13 13:51:31;;;;;;;9.80;7.10;;;;;;;22.04;64.25;96286.38;4932020;29;20183;-72
2023/09/13 13:53:56;;;;;;;10.77;6.70;;;;;;;21.93;64.59;96284.69;4932588;29;20179;-72
2023/09/13 13:56:22;;;;;;;8.07;6.50;;;;;;;21.96;63.81;96283.56;4932206;29;20206;-71
2023/09/13 13:58:48;;;;;;;14.87;6.90;;;;;;;21.98;64.06;96281.59;4931473;29;20241;-71
2023/09/13 14:01:13;;;;;;;11.83;7.20;;;;;;;21.97;64.32;96283.44;4932282;29;20423;-71
2023/09/13 14:03:39;;;;;;;10.33;6.33;;;;;;;22.01;64.46;96283.97;4932742;29;20724;-71
2023/09/13 14:06:04;;;;;;;10.13;6.07;;;;;;;22.10;64.52;96285.81;4946338;28;20571;-71
2023/09/13 14:08:31;;;;;;;16.03;7.73;;;;;;;22.12;63.21;96283.00;4931520;29;20271;-70
2023/09/13 14:10:56;;;;;;;14.33;6.60;;;;;;;22.04;63.77;96282.84;4931989;29;20210;-71
2023/09/13 14:13:22;;;;;;;8.60;6.00;;;;;;;21.98;65.03;96281.59;4932349;29;20425;-71
2023/09/13 14:15:48;;;;;;;10.77;6.93;;;;;;;22.03;65.52;96281.16;4931635;29;20183;-71
2023/09/13 14:18:13;;;;;;;24.77;9.47;;;;;;;22.06;65.62;96287.06;4931083;29;20452;-71
2023/09/13 14:20:42;;;;;;;11.30;7.97;;;;;;;22.10;65.54;96291.16;4927419;29;20230;-71
2023/09/13 14:23:10;;;;;;;11.00;8.00;;;;;;;22.08;66.29;96292.28;4931109;29;20182;-71
2023/09/13 14:25:35;;;;;;;7.57;6.13;;;;;;;22.01;66.69;96288.47;4932942;29;20465;-72
2023/09/13 14:28:00;;;;;;;8.10;7.40;;;;;;;21.93;67.06;96294.53;4933346;29;20431;-72
2023/09/13 14:30:26;;;;;;;7.87;7.07;;;;;;;21.98;67.07;96295.78;4931542;29;20646;-71
2023/09/13 14:32:51;;;;;;;7.97;6.70;;;;;;;21.96;67.17;96295.06;4931834;29;20198;-71
2023/09/13 14:35:16;;;;;;;8.30;6.30;;;;;;;21.88;67.80;96300.28;4933661;28;20183;-72
2023/09/13 14:37:42;;;;;;;22.93;8.10;;;;;;;21.97;67.46;96290.59;4933035;29;20249;-71
2023/09/13 14:40:08;;;;;;;8.27;7.47;;;;;;;21.87;67.70;96287.06;4931868;29;20211;-71
2023/09/13 14:42:34;;;;;;;15.17;9.00;;;;;;;21.87;67.94;96293.25;4937716;29;20179;-72
2023/09/13 14:44:59;;;;;;;8.37;7.57;;;;;;;22.01;67.12;96292.00;4940340;29;20468;-70
2023/09/13 14:47:26;;;;;;;14.30;8.93;;;;;;;21.96;nan;96294.25;4930485;29;20179;-70
2023/09/13 14:49:55;;;;;;;8.93;7.57;;;;;;;22.10;66.85;96293.81;4930482;29;20354;-70
2023/09/13 14:52:21;;;;;;;8.00;7.20;;;;;;;22.01;67.22;96292.00;4930486;29;20478;-70
2023/09/13 14:54:46;;;;;;;8.83;7.10;;;;;;;22.07;66.99;96290.59;4931074;29;20415;-70
2023/09/13 14:57:12;;;;;;;8.90;7.30;;;;;;;21.97;67.17;96285.25;4931123;29;20919;-72
2023/09/13 14:59:37;;;;;;;10.77;7.70;;;;;;;21.94;67.43;96281.00;4930557;29;20620;-72
2023/09/13 15:02:03;;;;;;;9.70;6.10;;;;;;;21.97;66.84;96286.09;4930746;29;20183;-72
2023/09/13 15:04:29;;;;;;;8.20;6.30;;;;;;;21.95;66.75;96284.56;4930967;29;20246;-71
2023/09/13 15:06:54;;;;;;;8.50;5.70;;;;;;;21.98;66.42;96287.78;4930287;29;20474;-72
2023/09/13 15:09:20;;;;;;;15.20;6.50;;;;;;;22.09;65.63;96284.13;4930128;29;20205;-72
2023/09/13 15:11:45;;;;;;;7.10;6.30;;;;;;;22.04;65.50;96289.06;4931707;29;20214;-71
2023/09/13 15:14:12;;;;;;;8.47;5.57;;;;;;;22.11;65.31;96291.97;4931949;29;20195;-70
2023/09/13 15:16:37;;;;;;;7.97;6.90;;;;;;;21.99;65.30;96285.94;4931447;29;20171;-71
2023/09/13 15:19:03;;;;;;;6.20;5.60;;;;;;;21.86;65.23;96288.06;4930972;29;20522;-72
2023/09/13 15:21:29;;;;;;;13.07;6.07;;;;;;;21.85;65.14;96284.56;4930494;29;20242;-72